Sarah — WDI4859 — position and weather

sailwx.info

Track history (hours):
 
Tides and Currents Weather Stations Pressure Air Temp Water Temp Dewpoint Dewpoint Depression Visibility Wind Speed Wind Dir Waves Ship Positions

Sarah

Owner: Brusco Tug & Barge, Inc., Longview, WA. More information available from US FCC via Universal Licensing System and Coast Guard Vessel Documentation Center.

Last reported at 2017-Nov-18 23:21 UTC. Time now 2017-Nov-21 10:25 UTC.
Position N 33°44' W 118°17'.

Length 24 m.

Type: Tug. MMSI: 367702770.

Date/timePositionNaut miles runAvg speedWind from/ knotsBaromVisibWave heightAir tempDewpointWater temp
2017-Nov-18 23:21N 33°44' W 118°17'0 0.1
2017-Nov-18 21:15N 33°44' W 118°16'  
2017-Nov-16 11:35N 33°45' W 118°16'0 0.0
2017-Nov-16 11:25N 33°45' W 118°16'0 0.0
2017-Nov-15 18:32N 33°45' W 118°16'3 0.6
2017-Nov-15 14:07N 33°46' W 118°13'0 1.2
2017-Nov-15 13:57N 33°46' W 118°13'3 0.1
2017-Nov-14 00:34N 33°44' W 118°17'0 0.2
2017-Nov-14 00:30N 33°44' W 118°17'2 1.6
2017-Nov-13 23:12N 33°46' W 118°16'0 0.7
2017-Nov-13 23:00N 33°46' W 118°17'1 2.8
2017-Nov-13 22:30N 33°45' W 118°17'  
Track history (hours):
 
Tides and Currents Weather Stations Pressure Air Temp Water Temp Dewpoint Dewpoint Depression Visibility Wind Speed Wind Dir Waves Ship Positions

Sarah

Owner: Brusco Tug & Barge, Inc., Longview, WA. More information available from US FCC via Universal Licensing System and Coast Guard Vessel Documentation Center.

Last reported at 2017-Nov-18 23:21 UTC. Time now 2017-Nov-21 10:25 UTC.
Position N 33°44' W 118°17'.

Length 24 m.

Type: Tug. MMSI: 367702770.

Date/timePositionNaut miles runAvg speedWind from/ knotsBaromVisibWave heightAir tempDewpointWater temp
2017-Nov-18 23:21N 33°44' W 118°17'0 0.1
2017-Nov-18 21:15N 33°44' W 118°16'  
2017-Nov-16 11:35N 33°45' W 118°16'0 0.0
2017-Nov-16 11:25N 33°45' W 118°16'0 0.0
2017-Nov-15 18:32N 33°45' W 118°16'3 0.6
2017-Nov-15 14:07N 33°46' W 118°13'0 1.2
2017-Nov-15 13:57N 33°46' W 118°13'3 0.1
2017-Nov-14 00:34N 33°44' W 118°17'0 0.2
2017-Nov-14 00:30N 33°44' W 118°17'2 1.6
2017-Nov-13 23:12N 33°46' W 118°16'0 0.7
2017-Nov-13 23:00N 33°46' W 118°17'1 2.8
2017-Nov-13 22:30N 33°45' W 118°17'  

Dump ship's entire track history